createdAt,value
2024-04-22T00:00:10.063Z,3.70
2024-04-22T00:02:37.577Z,3.90
2024-04-22T00:05:12.762Z,4.00
2024-04-22T00:07:40.330Z,4.05
2024-04-22T00:10:10.989Z,3.45
2024-04-22T00:12:38.458Z,3.67
2024-04-22T00:15:10.196Z,3.88
2024-04-22T00:17:37.710Z,4.20
2024-04-22T00:20:11.989Z,3.75
2024-04-22T00:22:39.441Z,3.58
2024-04-22T00:25:10.024Z,3.97
2024-04-22T00:27:37.500Z,4.07
2024-04-22T00:30:09.564Z,4.03
2024-04-22T00:32:37.162Z,3.92
2024-04-22T00:35:10.518Z,4.57
2024-04-22T00:37:38.030Z,3.83
2024-04-22T00:40:10.116Z,4.15
2024-04-22T00:42:37.596Z,4.75
2024-04-22T00:45:09.304Z,4.07
2024-04-22T00:47:37.188Z,4.03
2024-04-22T00:50:11.662Z,4.47
2024-04-22T00:52:40.571Z,4.38
2024-04-22T00:55:11.792Z,4.15
2024-04-22T00:57:41.583Z,4.35
2024-04-22T01:00:13.515Z,5.28
2024-04-22T01:02:41.067Z,3.95
2024-04-22T01:05:14.032Z,4.53
2024-04-22T01:07:41.692Z,4.53
2024-04-22T01:10:12.644Z,4.65
2024-04-22T01:12:40.170Z,4.32
2024-04-22T01:15:10.523Z,4.57
2024-04-22T01:17:40.698Z,4.50
2024-04-22T01:20:15.134Z,4.53
2024-04-22T01:22:45.357Z,4.72
2024-04-22T01:25:15.487Z,4.75
2024-04-22T01:27:43.236Z,4.97
2024-04-22T01:30:15.194Z,4.68
2024-04-22T01:32:43.014Z,4.15
2024-04-22T01:35:13.806Z,4.80
2024-04-22T01:37:41.446Z,5.47
2024-04-22T01:40:15.511Z,4.97
2024-04-22T01:42:43.406Z,5.40
2024-04-22T01:45:13.798Z,4.80
2024-04-22T01:47:42.446Z,4.50
2024-04-22T01:50:14.201Z,4.78
2024-04-22T01:52:41.752Z,4.65
2024-04-22T01:55:14.935Z,4.38
2024-04-22T01:57:42.659Z,4.47
2024-04-22T02:00:14.071Z,4.85
2024-04-22T02:02:41.577Z,5.28
2024-04-22T02:05:11.828Z,4.72
2024-04-22T02:07:39.280Z,5.00
2024-04-22T02:10:21.273Z,4.68
2024-04-22T02:12:56.383Z,4.70
2024-04-22T02:15:23.876Z,5.38
2024-04-22T02:17:55.073Z,4.70
2024-04-22T02:20:22.736Z,4.60
2024-04-22T02:22:52.790Z,4.55
2024-04-22T02:25:20.419Z,5.10
2024-04-22T02:27:50.545Z,4.40
2024-04-22T02:30:20.812Z,4.78
2024-04-22T02:32:50.921Z,4.70
2024-04-22T02:35:18.737Z,4.72
2024-04-22T02:37:48.771Z,4.55
2024-04-22T02:40:16.593Z,4.38
2024-04-22T02:42:46.881Z,5.55
2024-04-22T02:45:14.654Z,5.10
2024-04-22T02:47:47.433Z,4.90
2024-04-22T02:50:17.949Z,4.88
2024-04-22T02:52:45.428Z,4.53
2024-04-22T02:55:15.690Z,4.78
2024-04-22T02:57:43.375Z,5.25
2024-04-22T03:00:14.869Z,5.22
2024-04-22T03:02:46.046Z,5.15
2024-04-22T03:05:16.102Z,5.70
2024-04-22T03:07:43.776Z,5.25
2024-04-22T03:10:13.983Z,5.07
2024-04-22T03:12:41.443Z,5.13
2024-04-22T03:15:11.780Z,4.63
2024-04-22T03:17:39.484Z,5.00
2024-04-22T03:20:13.736Z,4.10
2024-04-22T03:22:41.584Z,4.43
2024-04-22T03:25:11.776Z,4.63
2024-04-22T03:27:39.225Z,4.60
2024-04-22T03:30:10.887Z,4.40
2024-04-22T03:32:38.881Z,4.18
2024-04-22T03:35:11.971Z,3.83
2024-04-22T03:37:42.142Z,3.83
2024-04-22T03:40:12.934Z,3.80
2024-04-22T03:42:43.038Z,4.15
2024-04-22T03:45:10.848Z,3.95
2024-04-22T03:47:56.927Z,3.90
2024-04-22T03:50:29.913Z,3.90
2024-04-22T03:53:01.453Z,3.65
2024-04-22T03:55:31.612Z,4.05
2024-04-22T03:58:01.709Z,3.60
2024-04-22T04:00:31.851Z,3.85
2024-04-22T04:02:59.291Z,3.33
2024-04-22T04:05:32.205Z,4.25
2024-04-22T04:08:02.360Z,3.65
2024-04-22T04:10:30.030Z,3.83
2024-04-22T04:13:00.091Z,3.55
2024-04-22T04:15:28.023Z,4.43
2024-04-22T04:17:58.091Z,3.67
2024-04-22T04:20:28.422Z,3.80
2024-04-22T04:22:58.695Z,3.35
2024-04-22T04:25:26.227Z,3.47
2024-04-22T04:27:56.335Z,3.83
2024-04-22T04:30:24.117Z,3.88
2024-04-22T04:32:54.221Z,4.00
2024-04-22T04:35:21.718Z,3.70
2024-04-22T04:37:54.364Z,3.72
2024-04-22T04:40:21.824Z,3.60
2024-04-22T04:42:51.846Z,4.30
2024-04-22T04:45:19.306Z,3.63
2024-04-22T04:47:50.945Z,3.58
2024-04-22T04:50:18.492Z,3.75
2024-04-22T04:52:48.545Z,3.20
2024-04-22T04:55:18.770Z,3.80
2024-04-22T04:57:48.903Z,3.33
2024-04-22T05:00:16.605Z,3.05
2024-04-22T05:02:47.422Z,3.10
2024-04-22T05:05:15.074Z,3.35
2024-04-22T05:07:45.194Z,3.42
2024-04-22T05:10:12.684Z,3.03
2024-04-22T05:12:45.345Z,3.53
2024-04-22T05:15:12.987Z,3.17
2024-04-22T05:17:43.074Z,3.78
2024-04-22T05:20:11.805Z,3.40
2024-04-22T05:22:42.010Z,3.25
2024-04-22T05:25:09.659Z,2.92
2024-04-22T05:27:39.801Z,3.13
2024-04-22T05:30:11.577Z,3.20
2024-04-22T05:32:41.956Z,3.40
2024-04-22T05:35:28.015Z,3.15
2024-04-22T05:37:58.137Z,3.30
2024-04-22T05:40:28.496Z,3.13
2024-04-22T05:42:59.171Z,3.97
2024-04-22T05:45:36.774Z,2.80
2024-04-22T05:48:07.317Z,2.97
2024-04-22T05:50:37.671Z,3.72
2024-04-22T05:53:08.126Z,2.80
2024-04-22T05:55:36.369Z,3.00
2024-04-22T05:58:06.609Z,2.92
2024-04-22T06:00:39.529Z,3.40
2024-04-22T06:03:07.049Z,3.83
2024-04-22T06:05:37.405Z,3.00
2024-04-22T06:08:06.173Z,3.15
2024-04-22T06:10:36.486Z,3.72
2024-04-22T06:13:04.203Z,2.90
2024-04-22T06:15:34.649Z,3.17
2024-04-22T06:18:05.119Z,2.75
2024-04-22T06:20:35.393Z,3.20
2024-04-22T06:23:02.946Z,3.13
2024-04-22T06:25:33.102Z,2.80
2024-04-22T06:28:00.641Z,3.47
2024-04-22T06:30:30.863Z,2.65
2024-04-22T06:32:58.773Z,3.28
2024-04-22T06:35:31.562Z,3.10
2024-04-22T06:37:59.079Z,2.70
2024-04-22T06:40:29.223Z,3.08
2024-04-22T06:42:56.733Z,2.80
2024-04-22T06:45:26.973Z,3.08
2024-04-22T06:47:54.572Z,2.60
2024-04-22T06:50:24.734Z,3.00
2024-04-22T06:52:54.848Z,2.78
2024-04-22T06:55:26.425Z,3.08
2024-04-22T06:57:53.895Z,3.30
2024-04-22T07:00:24.434Z,3.50
2024-04-22T07:02:52.974Z,3.42
2024-04-22T07:05:23.202Z,3.00
2024-04-22T07:07:53.366Z,3.17
2024-04-22T07:10:23.449Z,2.92
2024-04-22T07:12:51.150Z,3.08
2024-04-22T07:15:21.951Z,3.17
2024-04-22T07:17:49.558Z,3.20
2024-04-22T07:20:19.878Z,2.70
2024-04-22T07:22:47.461Z,3.15
2024-04-22T07:25:21.888Z,2.55
2024-04-22T07:27:50.083Z,3.22
2024-04-22T07:30:23.396Z,3.47
2024-04-22T07:32:51.722Z,3.28
2024-04-22T07:35:23.702Z,3.17
2024-04-22T07:37:57.418Z,2.50
2024-04-22T07:40:31.557Z,3.10
2024-04-22T07:42:59.206Z,2.70
2024-04-22T07:45:30.963Z,2.80
2024-04-22T07:48:00.452Z,2.78
2024-04-22T07:50:30.615Z,3.25
2024-04-22T07:52:58.927Z,2.45
2024-04-22T07:55:32.824Z,2.42
2024-04-22T07:58:01.703Z,2.67
2024-04-22T08:00:33.515Z,2.67
2024-04-22T08:03:02.031Z,2.40
2024-04-22T08:05:33.193Z,2.60
2024-04-22T08:08:01.682Z,2.50
2024-04-22T08:10:34.517Z,2.50
2024-04-22T08:13:01.953Z,2.60
2024-04-22T08:15:32.038Z,2.42
2024-04-22T08:17:59.582Z,2.35
2024-04-22T08:20:29.749Z,2.20
2024-04-22T08:23:00.643Z,2.42
2024-04-22T08:25:33.473Z,2.50
2024-04-22T08:28:01.032Z,2.22
2024-04-22T08:30:31.672Z,2.30
2024-04-22T08:33:01.279Z,2.30
2024-04-22T08:35:31.580Z,2.33
2024-04-22T08:37:59.212Z,2.58
2024-04-22T08:40:29.318Z,2.65
2024-04-22T08:42:59.752Z,2.33
2024-04-22T08:45:31.436Z,2.20
2024-04-22T08:48:00.152Z,2.40
2024-04-22T08:50:30.437Z,2.30
2024-04-22T08:52:58.081Z,2.70
2024-04-22T08:55:30.371Z,2.20
2024-04-22T08:58:00.708Z,1.80
2024-04-22T09:00:30.837Z,2.50
2024-04-22T09:02:58.720Z,2.42
2024-04-22T09:05:29.647Z,2.28
2024-04-22T09:07:59.566Z,1.98
2024-04-22T09:11:04.998Z,2.17
2024-04-22T09:13:22.947Z,1.70
2024-04-22T09:15:55.552Z,1.95
2024-04-22T09:18:29.663Z,1.90
2024-04-22T09:21:07.183Z,1.83
2024-04-22T09:23:38.157Z,2.10
2024-04-22T09:26:07.139Z,1.58
2024-04-22T09:28:42.012Z,1.85
2024-04-22T09:31:10.477Z,1.80
2024-04-22T09:33:41.200Z,2.10
2024-04-22T09:36:11.647Z,2.00
2024-04-22T09:38:46.984Z,1.67
2024-04-22T09:41:16.462Z,2.00
2024-04-22T09:43:55.608Z,2.13
2024-04-22T09:46:28.145Z,2.08
2024-04-22T09:49:00.130Z,2.25
2024-04-22T09:51:28.874Z,2.08
2024-04-22T09:54:01.976Z,1.83
2024-04-22T09:56:35.600Z,2.33
2024-04-22T09:59:10.623Z,2.53
2024-04-22T10:01:38.603Z,2.60
2024-04-22T10:04:09.207Z,3.00
2024-04-22T10:06:40.083Z,4.10
2024-04-22T10:09:10.180Z,3.70
2024-04-22T10:11:38.274Z,3.60
2024-04-22T10:14:21.280Z,3.63
2024-04-22T10:16:57.574Z,4.00
2024-04-22T10:19:30.558Z,3.78
2024-04-22T10:22:01.442Z,3.10
2024-04-22T10:24:33.803Z,2.00
2024-04-22T10:27:09.700Z,1.80
2024-04-22T10:29:45.613Z,1.90
2024-04-22T10:32:13.114Z,2.30
2024-04-22T10:34:45.758Z,1.88
2024-04-22T10:37:14.284Z,2.22
2024-04-22T10:39:46.364Z,1.77
2024-04-22T10:42:14.161Z,1.70
2024-04-22T10:44:48.665Z,2.03
2024-04-22T10:47:16.315Z,1.70
2024-04-22T10:49:46.613Z,2.00
2024-04-22T10:52:14.160Z,2.25
2024-04-22T10:54:44.256Z,1.90
2024-04-22T10:57:13.072Z,1.67
2024-04-22T10:59:46.580Z,1.85
2024-04-22T11:02:14.281Z,1.75
2024-04-22T11:04:45.246Z,1.67
2024-04-22T11:07:15.484Z,2.03
2024-04-22T11:09:45.956Z,1.85
2024-04-22T11:12:14.257Z,1.85
2024-04-22T11:14:48.044Z,1.65
2024-04-22T11:17:21.547Z,1.70
2024-04-22T11:19:52.216Z,1.70
2024-04-22T11:22:21.115Z,1.60
2024-04-22T11:24:51.630Z,1.92
2024-04-22T11:27:19.573Z,1.88
2024-04-22T11:29:52.558Z,2.10
2024-04-22T11:32:20.252Z,2.42
2024-04-22T11:34:50.945Z,2.13
2024-04-22T11:37:19.534Z,1.98
2024-04-22T11:39:52.734Z,1.80
2024-04-22T11:42:20.392Z,1.92
2024-04-22T11:44:55.632Z,2.17
2024-04-22T11:47:28.242Z,2.10
2024-04-22T11:49:58.550Z,1.58
2024-04-22T11:52:26.040Z,2.17
2024-04-22T11:54:56.204Z,2.08
2024-04-22T11:57:23.773Z,2.10
2024-04-22T11:59:56.503Z,1.98
2024-04-22T12:02:24.007Z,1.83
2024-04-22T12:04:55.724Z,2.30
2024-04-22T12:07:23.492Z,2.58
2024-04-22T12:09:53.579Z,2.28
2024-04-22T12:12:21.039Z,2.78
2024-04-22T12:14:51.134Z,2.40
2024-04-22T12:19:53.228Z,2.88
2024-04-22T12:22:21.791Z,3.03
2024-04-22T12:24:51.946Z,2.67
2024-04-22T12:27:19.438Z,2.55
2024-04-22T12:29:49.549Z,2.80
2024-04-22T12:32:17.066Z,2.30
2024-04-22T12:34:49.800Z,2.95
2024-04-22T12:37:17.332Z,3.35
2024-04-22T12:39:47.557Z,2.85
2024-04-22T12:42:15.518Z,2.90
2024-04-22T12:44:45.753Z,3.00
2024-04-22T12:47:31.658Z,3.00
2024-04-22T12:50:20.198Z,3.00
2024-04-22T12:52:50.509Z,3.33
2024-04-22T12:55:20.892Z,3.10
2024-04-22T12:57:51.078Z,2.88
2024-04-22T13:00:21.502Z,3.03
2024-04-22T13:02:51.627Z,3.25
2024-04-22T13:05:26.240Z,2.78
2024-04-22T13:07:57.696Z,3.05
2024-04-22T13:10:30.487Z,3.03
2024-04-22T13:13:02.887Z,3.10
2024-04-22T13:15:35.723Z,3.17
2024-04-22T13:18:05.948Z,3.40
2024-04-22T13:20:38.811Z,3.40
2024-04-22T13:23:06.553Z,3.33
2024-04-22T13:25:36.995Z,3.33
2024-04-22T13:28:04.952Z,3.35
2024-04-22T13:30:35.084Z,3.50
2024-04-22T13:33:03.014Z,2.45
2024-04-22T13:35:33.179Z,2.30
2024-04-22T13:38:03.289Z,2.15
2024-04-22T13:40:33.586Z,2.33
2024-04-22T13:43:03.999Z,2.38
2024-04-22T13:45:31.487Z,2.42
2024-04-22T13:48:01.618Z,2.20
2024-04-22T13:50:29.180Z,2.03
2024-04-22T13:52:59.401Z,2.40
2024-04-22T13:55:29.888Z,2.13
2024-04-22T13:58:00.088Z,2.30
2024-04-22T14:00:27.564Z,2.13
2024-04-22T14:02:57.901Z,2.00
2024-04-22T14:05:25.458Z,1.95
2024-04-22T14:07:57.197Z,2.17
2024-04-22T14:10:24.893Z,2.38
2024-04-22T14:12:57.883Z,2.22
2024-04-22T14:15:40.253Z,1.88
2024-04-22T14:18:15.889Z,1.70
2024-04-22T14:20:44.081Z,1.70
2024-04-22T14:23:15.075Z,1.50
2024-04-22T14:25:44.399Z,1.50
2024-04-22T14:28:17.299Z,1.73
2024-04-22T14:30:45.400Z,1.45
2024-04-22T14:33:21.227Z,1.52
2024-04-22T14:35:50.938Z,1.90
2024-04-22T14:38:21.055Z,1.67
2024-04-22T14:40:48.539Z,1.83
2024-04-22T14:43:21.321Z,2.00
2024-04-22T14:45:48.813Z,1.73
2024-04-22T14:48:19.233Z,2.17
2024-04-22T14:50:52.226Z,1.92
2024-04-22T14:53:22.324Z,1.98
2024-04-22T14:55:50.014Z,1.80
2024-04-22T14:58:22.849Z,2.42
2024-04-22T15:00:51.718Z,1.77
2024-04-22T15:03:23.148Z,1.73
2024-04-22T15:05:50.723Z,1.65
2024-04-22T15:08:20.878Z,1.48
2024-04-22T15:10:51.723Z,1.20
2024-04-22T15:13:24.856Z,1.80
2024-04-22T15:15:52.357Z,1.70
2024-04-22T15:18:22.624Z,1.83
2024-04-22T15:20:50.673Z,1.35
2024-04-22T15:23:20.766Z,1.20
2024-04-22T15:25:48.298Z,1.38
2024-04-22T15:28:18.600Z,1.30
2024-04-22T15:30:48.746Z,1.83
2024-04-22T15:33:19.919Z,1.27
2024-04-22T15:35:47.429Z,1.05
2024-04-22T15:38:18.304Z,1.20
2024-04-22T15:40:45.964Z,1.33
2024-04-22T15:43:16.064Z,1.00
2024-04-22T15:45:44.274Z,1.20
2024-04-22T15:48:21.264Z,1.10
2024-04-22T15:50:49.610Z,1.38
2024-04-22T15:53:19.770Z,1.40
2024-04-22T15:55:57.615Z,1.50
2024-04-22T15:58:28.270Z,2.70
2024-04-22T16:00:56.131Z,1.15
2024-04-22T16:03:32.089Z,1.42
2024-04-22T16:05:59.896Z,1.70
2024-04-22T16:08:32.318Z,1.23
2024-04-22T16:11:00.549Z,1.63
2024-04-22T16:13:30.770Z,1.45
2024-04-22T16:15:58.645Z,2.08
2024-04-22T16:18:33.573Z,2.03
2024-04-22T16:21:11.720Z,1.58
2024-04-22T16:23:45.619Z,1.60
2024-04-22T16:26:16.056Z,1.40
2024-04-22T16:28:47.125Z,1.40
2024-04-22T16:31:16.089Z,1.50
2024-04-22T16:33:48.991Z,1.35
2024-04-22T16:36:16.474Z,1.40
2024-04-22T16:38:46.572Z,1.33
2024-04-22T16:41:14.117Z,1.30
2024-04-22T16:43:44.869Z,1.40
2024-04-22T16:46:12.346Z,1.40
2024-04-22T16:48:42.858Z,1.73
2024-04-22T16:51:13.166Z,1.40
2024-04-22T16:53:47.355Z,1.52
2024-04-22T16:56:16.098Z,1.50
2024-04-22T16:58:46.235Z,1.63
2024-04-22T17:01:13.902Z,2.08
2024-04-22T17:03:44.215Z,1.33
2024-04-22T17:06:14.321Z,1.33
2024-04-22T17:08:44.389Z,1.10
2024-04-22T17:11:12.032Z,1.17
2024-04-22T17:13:42.184Z,1.33
2024-04-22T17:16:10.708Z,1.10
2024-04-22T17:18:41.901Z,1.45
2024-04-22T17:21:09.690Z,1.27
2024-04-22T17:23:42.481Z,1.30
2024-04-22T17:26:10.149Z,1.40
2024-04-22T17:28:40.269Z,1.33
2024-04-22T17:31:08.256Z,1.27
2024-04-22T17:33:39.074Z,1.10
2024-04-22T17:36:07.547Z,1.30
2024-04-22T17:38:37.611Z,1.40
2024-04-22T17:41:07.776Z,1.13
2024-04-22T17:43:37.936Z,1.23
2024-04-22T17:46:08.035Z,1.23
2024-04-22T17:48:39.184Z,1.30
2024-04-22T17:51:07.137Z,1.10
2024-04-22T17:53:37.230Z,1.02
2024-04-22T17:56:07.970Z,1.20
2024-04-22T17:58:38.190Z,1.20
2024-04-22T18:01:05.921Z,1.15
2024-04-22T18:03:36.148Z,1.20
2024-04-22T18:06:03.875Z,1.20
2024-04-22T18:08:33.974Z,1.33
2024-04-22T18:11:01.540Z,1.00
2024-04-22T18:13:34.339Z,0.98
2024-04-22T18:16:01.845Z,1.08
2024-04-22T18:18:31.973Z,1.00
2024-04-22T18:20:59.605Z,1.10
2024-04-22T18:23:30.596Z,1.63
2024-04-22T18:26:02.707Z,1.23
2024-04-22T18:28:42.383Z,1.40
2024-04-22T18:31:10.160Z,1.20
2024-04-22T18:33:40.356Z,1.33
2024-04-22T18:36:08.517Z,1.30
2024-04-22T18:38:38.715Z,1.52
2024-04-22T18:41:09.204Z,1.60
2024-04-22T18:43:43.467Z,1.70
2024-04-22T18:46:11.155Z,1.75
2024-04-22T18:48:41.730Z,1.40
2024-04-22T18:51:09.458Z,1.40
2024-04-22T18:53:39.587Z,1.48
2024-04-22T18:56:07.520Z,1.63
2024-04-22T18:58:37.687Z,1.90
2024-04-22T19:01:07.965Z,1.70
2024-04-22T19:03:38.235Z,1.60
2024-04-22T19:06:06.749Z,1.50
2024-04-22T19:08:36.935Z,1.60
2024-04-22T19:11:07.844Z,1.80
2024-04-22T19:13:41.137Z,1.38
2024-04-22T19:16:13.325Z,1.40
2024-04-22T19:18:43.459Z,1.38
2024-04-22T19:21:11.035Z,1.40
2024-04-22T19:23:41.142Z,1.48
2024-04-22T19:26:10.343Z,1.73
2024-04-22T19:28:40.604Z,1.30
2024-04-22T19:31:08.912Z,1.60
2024-04-22T19:33:41.721Z,1.70
2024-04-22T19:36:09.719Z,1.48
2024-04-22T19:38:39.854Z,1.52
2024-04-22T19:41:07.443Z,1.90
2024-04-22T19:43:37.698Z,1.88
2024-04-22T19:46:06.186Z,1.70
2024-04-22T19:48:36.302Z,1.30
2024-04-22T19:51:07.412Z,1.67
2024-04-22T19:53:37.675Z,1.55
2024-04-22T19:56:06.971Z,1.60
2024-04-22T19:58:39.274Z,1.85
2024-04-22T20:01:06.935Z,2.08
2024-04-22T20:03:37.200Z,2.10
2024-04-22T20:06:07.941Z,1.92
2024-04-22T20:08:38.434Z,1.90
2024-04-22T20:11:06.540Z,1.80
2024-04-22T20:13:36.761Z,2.13
2024-04-22T20:16:15.772Z,1.92
2024-04-22T20:18:54.803Z,2.30
2024-04-22T20:21:25.304Z,2.20
2024-04-22T20:23:58.260Z,1.92
2024-04-22T20:26:26.307Z,2.05
2024-04-22T20:28:56.632Z,2.05
2024-04-22T20:31:24.307Z,1.92
2024-04-22T20:33:56.938Z,2.25
2024-04-22T20:36:27.130Z,3.90
2024-04-22T20:38:57.866Z,2.53
2024-04-22T20:41:25.327Z,2.15
2024-04-22T20:44:00.320Z,2.42
2024-04-22T20:46:28.028Z,2.65
2024-04-22T20:48:58.190Z,2.50
2024-04-22T20:51:28.623Z,2.10
2024-04-22T20:53:58.848Z,2.60
2024-04-22T20:56:26.355Z,2.88
2024-04-22T20:58:56.545Z,3.00
2024-04-22T21:01:24.088Z,2.97
2024-04-22T21:03:54.226Z,2.47
2024-04-22T21:06:21.691Z,2.55
2024-04-22T21:08:54.392Z,2.42
2024-04-22T21:11:22.001Z,3.10
2024-04-22T21:14:01.222Z,2.78
2024-04-22T21:16:29.215Z,2.38
2024-04-22T21:19:07.677Z,2.85
2024-04-22T21:21:42.630Z,2.42
2024-04-22T21:24:15.444Z,2.60
2024-04-22T21:26:43.471Z,2.28
2024-04-22T21:29:16.086Z,2.80
2024-04-22T21:31:43.582Z,2.35
2024-04-22T21:34:13.821Z,2.30
2024-04-22T21:36:41.373Z,2.70
2024-04-22T21:39:14.424Z,2.30
2024-04-22T21:41:42.457Z,2.30
2024-04-22T21:44:12.512Z,2.00
2024-04-22T21:46:40.001Z,2.15
2024-04-22T21:49:10.461Z,2.50
2024-04-22T21:51:37.893Z,2.17
2024-04-22T21:54:09.770Z,2.30
2024-04-22T21:56:36.790Z,1.88
2024-04-22T22:00:03.002Z,2.30
2024-04-22T22:03:26.633Z,2.15
2024-04-22T22:06:52.665Z,2.15
2024-04-22T22:09:29.039Z,2.13
2024-04-22T22:11:59.213Z,2.40
2024-04-22T22:14:26.765Z,2.20
2024-04-22T22:16:57.036Z,2.35
2024-04-22T22:19:24.662Z,2.35
2024-04-22T22:21:54.741Z,2.00
2024-04-22T22:24:24.871Z,2.47
2024-04-22T22:26:55.004Z,2.28
2024-04-22T22:29:22.440Z,2.40
2024-04-22T22:31:52.551Z,2.28
2024-04-22T22:34:20.017Z,2.25
2024-04-22T22:36:50.056Z,1.88
2024-04-22T22:39:17.520Z,2.17
2024-04-22T22:41:50.195Z,2.42
2024-04-22T22:44:17.607Z,2.22
2024-04-22T22:46:47.708Z,2.35
2024-04-22T22:49:15.289Z,2.42
2024-04-22T22:51:45.379Z,2.00
2024-04-22T22:54:12.826Z,2.40
2024-04-22T22:56:42.862Z,2.35
2024-04-22T22:59:12.896Z,2.35
2024-04-22T23:01:42.952Z,2.35
2024-04-22T23:04:10.426Z,2.25
2024-04-22T23:06:40.488Z,2.58
2024-04-22T23:09:08.143Z,2.38
2024-04-22T23:11:38.328Z,2.33
2024-04-22T23:14:06.026Z,2.30
2024-04-22T23:16:38.723Z,2.30
2024-04-22T23:19:06.130Z,2.30
2024-04-22T23:21:36.202Z,2.33
2024-04-22T23:24:03.823Z,2.22
2024-04-22T23:26:33.888Z,2.10
2024-04-22T23:29:01.390Z,2.28
2024-04-22T23:31:31.536Z,2.15
2024-04-22T23:34:01.620Z,2.17
2024-04-22T23:36:31.680Z,2.58
2024-04-22T23:38:59.221Z,2.22
2024-04-22T23:41:29.300Z,2.15
2024-04-22T23:43:56.735Z,2.45
2024-04-22T23:46:26.763Z,2.17
2024-04-22T23:48:54.272Z,2.10
2024-04-22T23:51:26.906Z,2.28
2024-04-22T23:53:54.330Z,2.50
2024-04-22T23:56:24.400Z,2.70
2024-04-22T23:58:51.889Z,2.50
